createdAt,value
2019-05-05T00:00:05.224Z,11.94
2019-05-05T00:01:05.518Z,11.94
2019-05-05T00:02:05.928Z,11.81
2019-05-05T00:03:05.328Z,11.50
2019-05-05T00:04:05.598Z,11.38
2019-05-05T00:05:08.386Z,11.44
2019-05-05T00:06:05.313Z,11.31
2019-05-05T00:07:06.050Z,11.25
2019-05-05T00:08:05.605Z,11.19
2019-05-05T00:09:05.920Z,11.12
2019-05-05T00:10:06.142Z,11.12
2019-05-05T00:11:05.512Z,11.06
2019-05-05T00:12:05.817Z,11.00
2019-05-05T00:13:05.973Z,10.94
2019-05-05T00:14:05.261Z,10.88
2019-05-05T00:15:05.686Z,10.81
2019-05-05T00:16:05.982Z,10.81
2019-05-05T00:17:05.460Z,10.75
2019-05-05T00:18:05.536Z,10.75
2019-05-05T00:19:05.809Z,10.62
2019-05-05T00:20:05.323Z,10.75
2019-05-05T00:21:05.009Z,10.69
2019-05-05T00:22:05.363Z,10.69
2019-05-05T00:23:05.436Z,10.62
2019-05-05T00:24:05.887Z,10.62
2019-05-05T00:25:06.050Z,10.62
2019-05-05T00:26:05.513Z,10.69
2019-05-05T00:27:05.564Z,10.75
2019-05-05T00:28:06.158Z,10.75
2019-05-05T00:29:05.264Z,10.81
2019-05-05T00:30:07.310Z,10.69
2019-05-05T00:31:05.815Z,11.12
2019-05-05T00:32:06.299Z,11.25
2019-05-05T00:33:05.595Z,11.12
2019-05-05T00:34:05.258Z,11.25
2019-05-05T00:35:05.747Z,11.12
2019-05-05T00:36:07.677Z,11.00
2019-05-05T00:37:05.559Z,11.00
2019-05-05T00:38:05.210Z,11.56
2019-05-05T00:39:05.664Z,11.75
2019-05-05T00:40:05.415Z,12.06
2019-05-05T00:41:05.892Z,12.12
2019-05-05T00:42:05.201Z,12.12
2019-05-05T00:43:05.501Z,12.12
2019-05-05T00:44:05.167Z,12.06
2019-05-05T00:45:05.613Z,11.88
2019-05-05T00:46:05.073Z,11.94
2019-05-05T00:47:05.371Z,11.88
2019-05-05T00:48:06.066Z,12.00
2019-05-05T00:49:05.513Z,12.94
2019-05-05T00:50:05.328Z,13.75
2019-05-05T00:51:05.991Z,14.00
2019-05-05T00:52:06.065Z,13.94
2019-05-05T00:53:05.822Z,13.94
2019-05-05T00:54:05.097Z,14.06
2019-05-05T00:55:05.354Z,14.19
2019-05-05T00:56:05.796Z,14.12
2019-05-05T00:57:05.111Z,14.00
2019-05-05T00:58:05.433Z,14.25
2019-05-05T00:59:05.981Z,14.38
2019-05-05T01:00:05.983Z,14.38
2019-05-05T01:01:07.159Z,15.00
2019-05-05T01:02:05.252Z,14.38
2019-05-05T01:03:05.350Z,13.81
2019-05-05T01:04:05.846Z,13.56
2019-05-05T01:05:05.032Z,13.38
2019-05-05T01:06:05.434Z,13.38
2019-05-05T01:07:05.492Z,13.94
2019-05-05T01:08:05.754Z,14.19
2019-05-05T01:09:05.989Z,14.12
2019-05-05T01:10:05.898Z,13.12
2019-05-05T01:11:06.136Z,12.62
2019-05-05T01:12:05.255Z,12.31
2019-05-05T01:13:05.419Z,12.25
2019-05-05T01:14:05.671Z,12.19
2019-05-05T01:15:06.033Z,12.12
2019-05-05T01:16:05.593Z,12.06
2019-05-05T01:17:05.424Z,11.94
2019-05-05T01:18:06.901Z,11.88
2019-05-05T01:19:05.387Z,11.81
2019-05-05T01:20:06.878Z,12.00
2019-05-05T01:21:05.680Z,11.88
2019-05-05T01:22:05.816Z,11.88
2019-05-05T01:23:06.064Z,11.88
2019-05-05T01:24:05.538Z,11.88
2019-05-05T01:25:05.766Z,11.75
2019-05-05T01:26:05.310Z,11.69
2019-05-05T01:27:05.853Z,11.69
2019-05-05T01:28:05.895Z,11.62
2019-05-05T01:29:05.667Z,11.62
2019-05-05T01:30:05.967Z,11.81
2019-05-05T01:31:05.646Z,11.69
2019-05-05T01:32:05.182Z,11.62
2019-05-05T01:33:05.667Z,11.69
2019-05-05T01:34:05.957Z,11.62
2019-05-05T01:35:05.416Z,11.62
2019-05-05T01:36:05.901Z,11.56
2019-05-05T01:37:05.418Z,11.56
2019-05-05T01:38:05.435Z,11.50
2019-05-05T01:39:05.661Z,11.44
2019-05-05T01:40:05.758Z,11.44
2019-05-05T01:41:05.279Z,11.38
2019-05-05T01:42:05.169Z,11.38
2019-05-05T01:43:06.017Z,11.38
2019-05-05T01:44:05.504Z,11.69
2019-05-05T01:45:05.647Z,11.69
2019-05-05T01:46:05.766Z,11.56
2019-05-05T01:47:07.517Z,11.56
2019-05-05T01:48:05.809Z,11.50
2019-05-05T01:49:05.646Z,11.38
2019-05-05T01:50:16.990Z,11.38
2019-05-05T01:51:05.740Z,11.31
2019-05-05T01:52:06.339Z,11.25
2019-05-05T01:53:05.977Z,11.25
2019-05-05T01:54:05.665Z,11.25
2019-05-05T01:55:05.984Z,11.25
2019-05-05T01:56:05.519Z,11.19
2019-05-05T01:57:07.182Z,11.25
2019-05-05T01:58:05.906Z,11.19
2019-05-05T01:59:05.371Z,11.19
2019-05-05T02:00:06.074Z,11.19
2019-05-05T02:01:06.138Z,11.38
2019-05-05T02:02:05.179Z,11.44
2019-05-05T02:03:05.254Z,11.44
2019-05-05T02:04:05.581Z,11.44
2019-05-05T02:05:05.106Z,11.44
2019-05-05T02:06:05.388Z,11.38
2019-05-05T02:07:05.832Z,11.38
2019-05-05T02:08:05.175Z,11.44
2019-05-05T02:09:05.664Z,11.50
2019-05-05T02:10:06.213Z,11.38
2019-05-05T02:11:05.660Z,11.44
2019-05-05T02:12:05.986Z,11.44
2019-05-05T02:13:05.055Z,11.62
2019-05-05T02:14:05.349Z,11.62
2019-05-05T02:15:05.807Z,11.50
2019-05-05T02:16:05.338Z,11.44
2019-05-05T02:17:05.510Z,11.50
2019-05-05T02:18:05.570Z,11.50
2019-05-05T02:19:05.913Z,11.44
2019-05-05T02:20:05.400Z,11.44
2019-05-05T02:21:05.996Z,11.50
2019-05-05T02:22:05.905Z,11.38
2019-05-05T02:23:05.336Z,11.31
2019-05-05T02:24:05.553Z,11.19
2019-05-05T02:25:05.978Z,11.25
2019-05-05T02:26:05.194Z,11.19
2019-05-05T02:27:05.813Z,11.19
2019-05-05T02:28:05.500Z,11.12
2019-05-05T02:29:05.671Z,11.12
2019-05-05T02:30:06.356Z,11.12
2019-05-05T02:31:06.201Z,11.12
2019-05-05T02:32:06.407Z,11.12
2019-05-05T02:33:06.490Z,11.19
2019-05-05T02:34:05.747Z,11.25
2019-05-05T02:35:06.354Z,11.25
2019-05-05T02:36:06.170Z,11.69
2019-05-05T02:37:06.242Z,12.00
2019-05-05T02:38:06.435Z,11.94
2019-05-05T02:39:05.564Z,11.94
2019-05-05T02:40:07.479Z,11.94
2019-05-05T02:41:05.403Z,11.81
2019-05-05T02:42:06.154Z,11.69
2019-05-05T02:43:05.646Z,11.62
2019-05-05T02:44:05.312Z,11.56
2019-05-05T02:45:05.830Z,11.69
2019-05-05T02:46:05.748Z,11.69
2019-05-05T02:47:05.280Z,11.75
2019-05-05T02:48:06.033Z,11.75
2019-05-05T02:49:05.772Z,11.75
2019-05-05T02:50:05.470Z,11.69
2019-05-05T02:51:06.798Z,11.69
2019-05-05T02:52:05.828Z,11.75
2019-05-05T02:53:05.852Z,11.75
2019-05-05T02:54:05.120Z,11.69
2019-05-05T02:55:05.634Z,11.75
2019-05-05T02:56:05.844Z,11.69
2019-05-05T02:57:06.256Z,11.56
2019-05-05T02:58:05.871Z,12.12
2019-05-05T02:59:05.753Z,12.12
2019-05-05T03:00:06.093Z,11.88
2019-05-05T03:01:05.669Z,11.88
2019-05-05T03:02:06.032Z,11.75
2019-05-05T03:03:05.889Z,11.62
2019-05-05T03:04:07.258Z,11.44
2019-05-05T03:05:05.727Z,11.44
2019-05-05T03:06:06.064Z,11.44
2019-05-05T03:07:05.502Z,11.44
2019-05-05T03:08:06.052Z,11.50
2019-05-05T03:09:05.338Z,11.50
2019-05-05T03:10:05.818Z,11.50
2019-05-05T03:11:05.966Z,11.50
2019-05-05T03:12:05.342Z,11.75
2019-05-05T03:13:05.567Z,12.00
2019-05-05T03:14:05.175Z,12.12
2019-05-05T03:15:05.978Z,12.12
2019-05-05T03:16:05.523Z,12.19
2019-05-05T03:17:05.578Z,12.12
2019-05-05T03:18:05.586Z,12.06
2019-05-05T03:19:05.708Z,12.06
2019-05-05T03:20:05.812Z,12.12
2019-05-05T03:21:07.411Z,12.12
2019-05-05T03:22:05.910Z,12.19
2019-05-05T03:23:05.156Z,12.06
2019-05-05T03:24:05.739Z,12.06
2019-05-05T03:25:06.059Z,12.00
2019-05-05T03:26:05.657Z,11.94
2019-05-05T03:27:05.887Z,11.94
2019-05-05T03:28:05.125Z,11.75
2019-05-05T03:29:05.731Z,11.94
2019-05-05T03:30:05.860Z,12.00
2019-05-05T03:31:06.162Z,12.12
2019-05-05T03:32:05.838Z,12.50
2019-05-05T03:33:05.583Z,12.44
2019-05-05T03:34:06.091Z,12.38
2019-05-05T03:35:06.058Z,12.31
2019-05-05T03:36:05.495Z,12.25
2019-05-05T03:37:05.562Z,12.12
2019-05-05T03:38:05.096Z,12.06
2019-05-05T03:39:05.281Z,12.00
2019-05-05T03:40:05.921Z,12.19
2019-05-05T03:41:05.894Z,13.06
2019-05-05T03:42:05.973Z,13.56
2019-05-05T03:43:05.610Z,13.94
2019-05-05T03:44:05.755Z,14.44
2019-05-05T03:45:05.340Z,15.06
2019-05-05T03:46:05.415Z,14.81
2019-05-05T03:47:05.106Z,14.69
2019-05-05T03:48:05.275Z,14.50
2019-05-05T03:49:05.168Z,14.31
2019-05-05T03:50:05.667Z,13.94
2019-05-05T03:51:18.089Z,14.25
2019-05-05T03:52:05.432Z,14.31
2019-05-05T03:53:05.668Z,14.50
2019-05-05T03:54:06.048Z,14.25
2019-05-05T03:55:05.743Z,13.81
2019-05-05T03:56:05.259Z,14.25
2019-05-05T03:57:05.174Z,14.75
2019-05-05T03:58:05.738Z,14.75
2019-05-05T03:59:05.180Z,15.81
2019-05-05T04:00:07.819Z,16.12
2019-05-05T04:01:05.261Z,16.56
2019-05-05T04:02:06.000Z,16.50
2019-05-05T04:03:05.183Z,16.69
2019-05-05T04:04:05.577Z,16.50
2019-05-05T04:05:05.665Z,17.19
2019-05-05T04:06:07.069Z,16.88
2019-05-05T04:07:05.583Z,16.62
2019-05-05T04:08:06.073Z,17.00
2019-05-05T04:09:05.986Z,16.44
2019-05-05T04:10:05.173Z,16.19
2019-05-05T04:11:05.417Z,16.31
2019-05-05T04:12:06.153Z,16.12
2019-05-05T04:13:05.584Z,15.81
2019-05-05T04:14:05.893Z,16.12
2019-05-05T04:15:05.416Z,15.75
2019-05-05T04:16:05.912Z,15.69
2019-05-05T04:17:06.236Z,16.75
2019-05-05T04:18:05.561Z,16.94
2019-05-05T04:19:05.257Z,17.06
2019-05-05T04:20:05.975Z,17.44
2019-05-05T04:21:05.495Z,17.38
2019-05-05T04:22:06.138Z,17.38
2019-05-05T04:23:05.084Z,17.50
2019-05-05T04:24:05.339Z,17.19
2019-05-05T04:25:06.335Z,17.19
2019-05-05T04:26:05.752Z,17.06
2019-05-05T04:27:06.154Z,17.31
2019-05-05T04:28:05.728Z,17.75
2019-05-05T04:29:05.552Z,18.19
2019-05-05T04:30:05.816Z,18.12
2019-05-05T04:31:06.083Z,18.06
2019-05-05T04:32:05.965Z,18.00
2019-05-05T04:33:05.096Z,17.88
2019-05-05T04:34:05.730Z,18.06
2019-05-05T04:35:05.340Z,17.56
2019-05-05T04:36:05.987Z,17.31
2019-05-05T04:37:07.147Z,17.44
2019-05-05T04:38:05.604Z,17.44
2019-05-05T04:39:05.100Z,17.56
2019-05-05T04:40:05.611Z,17.62
2019-05-05T04:41:06.160Z,17.31
2019-05-05T04:42:05.177Z,17.00
2019-05-05T04:43:05.495Z,16.69
2019-05-05T04:44:05.975Z,16.75
2019-05-05T04:45:05.664Z,17.06
2019-05-05T04:46:06.169Z,17.38
2019-05-05T04:47:05.411Z,17.12
2019-05-05T04:48:05.170Z,17.00
2019-05-05T04:49:05.740Z,17.50
2019-05-05T04:50:05.895Z,17.56
2019-05-05T04:51:05.419Z,17.19
2019-05-05T04:52:05.333Z,16.44
2019-05-05T04:53:05.975Z,16.06
2019-05-05T04:54:05.343Z,16.44
2019-05-05T04:55:05.506Z,16.31
2019-05-05T04:56:05.337Z,16.56
2019-05-05T04:57:05.900Z,17.25
2019-05-05T04:58:05.254Z,17.31
2019-05-05T04:59:05.513Z,17.38
2019-05-05T05:00:05.569Z,17.19
2019-05-05T05:01:05.888Z,17.62
2019-05-05T05:02:05.013Z,17.81
2019-05-05T05:03:05.976Z,17.88
2019-05-05T05:04:05.014Z,17.94
2019-05-05T05:05:05.166Z,17.94
2019-05-05T05:06:05.493Z,17.50
2019-05-05T05:07:05.438Z,17.19
2019-05-05T05:08:05.570Z,17.44
2019-05-05T05:09:06.019Z,17.38
2019-05-05T05:10:05.331Z,17.75
2019-05-05T05:11:05.663Z,18.31
2019-05-05T05:12:05.570Z,17.88
2019-05-05T05:13:05.970Z,18.38
2019-05-05T05:14:05.338Z,19.50
2019-05-05T05:15:05.750Z,18.44
2019-05-05T05:16:05.649Z,18.12
2019-05-05T05:17:05.654Z,18.31
2019-05-05T05:18:05.669Z,18.44
2019-05-05T05:19:05.572Z,18.38
2019-05-05T05:20:05.111Z,17.94
2019-05-05T05:21:05.010Z,17.69
2019-05-05T05:22:05.181Z,17.44
2019-05-05T05:23:06.624Z,19.75
2019-05-05T05:24:05.969Z,18.44
2019-05-05T05:25:05.093Z,17.88
2019-05-05T05:26:05.425Z,17.75
2019-05-05T05:27:05.760Z,17.94
2019-05-05T05:28:05.717Z,18.31
2019-05-05T05:29:05.102Z,18.19
2019-05-05T05:30:05.357Z,20.12
2019-05-05T05:31:05.419Z,21.12
2019-05-05T05:32:05.339Z,20.94
2019-05-05T05:33:05.413Z,20.12
2019-05-05T05:34:05.882Z,19.94
2019-05-05T05:35:05.007Z,19.56
2019-05-05T05:36:05.246Z,19.38
2019-05-05T05:37:05.879Z,19.38
2019-05-05T05:38:05.343Z,19.19
2019-05-05T05:39:05.512Z,18.75
2019-05-05T05:40:06.869Z,18.56
2019-05-05T05:41:05.976Z,18.19
2019-05-05T05:42:05.100Z,17.94
2019-05-05T05:43:05.350Z,18.06
2019-05-05T05:44:05.438Z,18.00
2019-05-05T05:45:05.414Z,17.69
2019-05-05T05:46:05.749Z,17.88
2019-05-05T05:47:05.823Z,17.94
2019-05-05T05:48:05.649Z,18.19
2019-05-05T05:49:05.260Z,18.62
2019-05-05T05:50:05.157Z,18.38
2019-05-05T05:51:05.253Z,18.25
2019-05-05T05:52:13.174Z,18.25
2019-05-05T05:53:05.583Z,18.25
2019-05-05T05:54:05.393Z,18.19
2019-05-05T05:55:05.907Z,18.38
2019-05-05T05:56:06.067Z,19.31
2019-05-05T05:57:05.891Z,19.62
2019-05-05T05:58:05.524Z,18.75
2019-05-05T05:59:05.494Z,18.44
2019-05-05T06:00:05.670Z,18.88
2019-05-05T06:01:05.650Z,18.88
2019-05-05T06:02:09.642Z,18.62
2019-05-05T06:03:05.402Z,19.81
2019-05-05T06:04:05.738Z,20.69
2019-05-05T06:05:05.183Z,19.38
2019-05-05T06:06:05.759Z,19.00
2019-05-05T06:07:05.725Z,18.75
2019-05-05T06:08:06.315Z,18.75
2019-05-05T06:09:05.671Z,18.25
2019-05-05T06:10:05.658Z,17.81
2019-05-05T06:11:06.089Z,17.56
2019-05-05T06:12:05.193Z,17.56
2019-05-05T06:13:05.416Z,17.56
2019-05-05T06:14:05.242Z,17.38
2019-05-05T06:15:05.735Z,17.38
2019-05-05T06:16:05.259Z,17.06
2019-05-05T06:17:07.668Z,17.06
2019-05-05T06:18:05.594Z,17.12
2019-05-05T06:19:05.415Z,17.19
2019-05-05T06:20:05.497Z,17.06
2019-05-05T06:21:05.821Z,16.94
2019-05-05T06:22:05.998Z,17.19
2019-05-05T06:23:05.573Z,17.81
2019-05-05T06:24:05.490Z,18.00
2019-05-05T06:25:06.702Z,17.88
2019-05-05T06:26:06.633Z,17.62
2019-05-05T06:27:05.205Z,17.62
2019-05-05T06:28:05.176Z,17.88
2019-05-05T06:29:05.584Z,17.62
2019-05-05T06:30:05.657Z,17.62
2019-05-05T06:31:05.665Z,17.56
2019-05-05T06:32:05.721Z,18.06
2019-05-05T06:33:05.346Z,18.38
2019-05-05T06:34:05.409Z,18.69
2019-05-05T06:35:05.973Z,18.38
2019-05-05T06:36:05.017Z,18.31
2019-05-05T06:37:05.414Z,18.00
2019-05-05T06:38:05.886Z,18.06
2019-05-05T06:39:05.015Z,18.31
2019-05-05T06:40:05.082Z,18.12
2019-05-05T06:41:05.178Z,18.31
2019-05-05T06:42:05.336Z,18.62
2019-05-05T06:43:05.649Z,19.38
2019-05-05T06:44:05.731Z,19.25
2019-05-05T06:45:05.807Z,19.44
2019-05-05T06:46:05.248Z,18.94
2019-05-05T06:47:05.350Z,18.31
2019-05-05T06:48:05.486Z,17.88
2019-05-05T06:49:05.892Z,17.94
2019-05-05T06:50:05.242Z,19.06
2019-05-05T06:51:05.407Z,19.38
2019-05-05T06:52:05.502Z,18.56
2019-05-05T06:53:05.503Z,19.38
2019-05-05T06:54:05.518Z,19.50
2019-05-05T06:55:05.102Z,19.12
2019-05-05T06:56:05.830Z,19.06
2019-05-05T06:57:05.842Z,18.94
2019-05-05T06:58:05.192Z,19.12
2019-05-05T06:59:05.345Z,19.12
2019-05-05T07:00:05.407Z,19.38
2019-05-05T07:01:05.432Z,19.31
2019-05-05T07:02:05.489Z,20.12
2019-05-05T07:03:07.768Z,20.31
2019-05-05T07:04:05.173Z,20.06
2019-05-05T07:05:05.191Z,19.44
2019-05-05T07:06:05.106Z,19.88
2019-05-05T07:07:05.621Z,19.94
2019-05-05T07:08:05.123Z,19.94
2019-05-05T07:09:05.518Z,19.88
2019-05-05T07:10:05.023Z,19.56
2019-05-05T07:11:05.276Z,19.25
2019-05-05T07:12:05.258Z,19.25
2019-05-05T07:13:06.583Z,19.31
2019-05-05T07:14:06.203Z,19.19
2019-05-05T07:15:05.501Z,19.06
2019-05-05T07:16:06.016Z,19.12
2019-05-05T07:17:05.368Z,19.06
2019-05-05T07:18:05.754Z,19.38
2019-05-05T07:19:05.970Z,19.81
2019-05-05T07:20:05.185Z,19.56
2019-05-05T07:21:05.341Z,19.50
2019-05-05T07:22:05.498Z,19.38
2019-05-05T07:23:06.570Z,19.12
2019-05-05T07:24:05.815Z,19.19
2019-05-05T07:25:05.345Z,19.06
2019-05-05T07:26:05.317Z,18.94
2019-05-05T07:27:05.434Z,19.06
2019-05-05T07:28:05.672Z,19.38
2019-05-05T07:29:05.748Z,19.19
2019-05-05T07:30:05.002Z,19.00
2019-05-05T07:31:05.303Z,19.31
2019-05-05T07:32:05.442Z,19.00
2019-05-05T07:33:05.803Z,18.94
2019-05-05T07:34:05.660Z,18.56
2019-05-05T07:35:05.653Z,18.38
2019-05-05T07:36:06.066Z,18.19
2019-05-05T07:37:05.757Z,18.69
2019-05-05T07:38:05.126Z,18.31
2019-05-05T07:39:05.100Z,18.19
2019-05-05T07:40:05.091Z,18.31
2019-05-05T07:41:05.007Z,18.25
2019-05-05T07:42:05.262Z,18.12
2019-05-05T07:43:05.186Z,18.25
2019-05-05T07:44:05.259Z,18.31
2019-05-05T07:45:18.428Z,18.50
2019-05-05T07:46:05.518Z,18.69
2019-05-05T07:47:05.819Z,18.81
2019-05-05T07:48:05.311Z,18.81
2019-05-05T07:49:05.350Z,19.50
2019-05-05T07:50:05.566Z,19.25
2019-05-05T07:51:05.608Z,20.50
2019-05-05T07:52:05.129Z,20.19
2019-05-05T07:53:14.092Z,20.19
2019-05-05T07:54:05.898Z,20.19
2019-05-05T07:55:05.855Z,20.19
2019-05-05T07:56:07.584Z,20.44
2019-05-05T07:57:05.187Z,20.38
2019-05-05T07:58:05.186Z,20.88
2019-05-05T07:59:05.415Z,20.62
2019-05-05T08:00:06.050Z,20.56
2019-05-05T08:01:05.355Z,20.50
2019-05-05T08:02:05.322Z,20.69
2019-05-05T08:03:05.719Z,20.38
2019-05-05T08:04:05.377Z,20.25
2019-05-05T08:05:05.278Z,19.88
2019-05-05T08:06:05.332Z,19.44
2019-05-05T08:07:05.327Z,19.12
2019-05-05T08:08:05.986Z,18.88
2019-05-05T08:09:05.244Z,18.50
2019-05-05T08:10:05.439Z,18.25
2019-05-05T08:11:05.906Z,18.25
2019-05-05T08:12:05.895Z,18.19
2019-05-05T08:13:05.195Z,18.25
2019-05-05T08:14:05.246Z,18.00
2019-05-05T08:15:05.410Z,18.12
2019-05-05T08:16:05.171Z,18.19
2019-05-05T08:17:05.410Z,18.12
2019-05-05T08:18:05.197Z,18.19
2019-05-05T08:19:05.815Z,18.06
2019-05-05T08:20:05.256Z,18.31
2019-05-05T08:21:05.635Z,18.12
2019-05-05T08:22:05.355Z,18.00
2019-05-05T08:23:08.213Z,18.06
2019-05-05T08:24:05.984Z,18.00
2019-05-05T08:25:05.185Z,18.00
2019-05-05T08:26:06.245Z,17.88
2019-05-05T08:27:05.599Z,18.12
2019-05-05T08:28:05.642Z,17.94
2019-05-05T08:29:06.093Z,17.69
2019-05-05T08:30:06.978Z,17.75
2019-05-05T08:31:06.388Z,17.62
2019-05-05T08:32:05.099Z,17.75
2019-05-05T08:33:05.746Z,18.12
2019-05-05T08:34:05.811Z,18.25
2019-05-05T08:35:05.346Z,19.06
2019-05-05T08:36:05.912Z,18.75
2019-05-05T08:37:05.970Z,18.56
2019-05-05T08:38:05.893Z,18.50
2019-05-05T08:39:05.655Z,18.56
2019-05-05T08:40:06.078Z,19.62
2019-05-05T08:41:05.663Z,19.50
2019-05-05T08:42:05.826Z,19.50
2019-05-05T08:43:05.642Z,19.12
2019-05-05T08:44:06.219Z,18.75
2019-05-05T08:45:05.667Z,18.38
2019-05-05T08:46:05.897Z,18.44
2019-05-05T08:47:05.823Z,18.50
2019-05-05T08:48:05.257Z,18.88
2019-05-05T08:49:05.129Z,18.75
2019-05-05T08:50:06.545Z,19.06
2019-05-05T08:51:05.215Z,19.81
2019-05-05T08:52:05.665Z,19.50
2019-05-05T08:53:08.356Z,19.19
2019-05-05T08:54:06.101Z,19.38
2019-05-05T08:55:05.989Z,19.38
2019-05-05T08:56:05.979Z,19.31
2019-05-05T08:57:05.330Z,19.44
2019-05-05T08:58:06.163Z,19.38
2019-05-05T08:59:05.354Z,19.38
2019-05-05T09:00:05.819Z,19.31
2019-05-05T09:01:05.829Z,19.44
2019-05-05T09:02:05.498Z,19.00
2019-05-05T09:03:06.132Z,18.69
2019-05-05T09:04:05.733Z,18.56
2019-05-05T09:05:05.737Z,18.50
2019-05-05T09:06:05.893Z,18.62
2019-05-05T09:07:05.439Z,18.75
2019-05-05T09:08:05.744Z,18.69
2019-05-05T09:09:05.972Z,18.81
2019-05-05T09:10:05.101Z,18.69
2019-05-05T09:11:05.484Z,18.88
2019-05-05T09:12:13.870Z,18.75
2019-05-05T09:13:05.175Z,18.81
2019-05-05T09:14:05.837Z,20.25
2019-05-05T09:15:05.010Z,20.56
2019-05-05T09:16:05.497Z,21.06
2019-05-05T09:17:06.167Z,20.50
2019-05-05T09:18:05.500Z,20.25
2019-05-05T09:19:05.647Z,20.00
2019-05-05T09:20:05.418Z,19.75
2019-05-05T09:21:06.069Z,19.62
2019-05-05T09:22:08.587Z,19.62
2019-05-05T09:23:05.182Z,19.56
2019-05-05T09:24:05.768Z,19.62
2019-05-05T09:25:05.283Z,19.81
2019-05-05T09:26:05.486Z,19.94
2019-05-05T09:27:05.668Z,20.19
2019-05-05T09:28:06.089Z,19.88
2019-05-05T09:29:05.887Z,19.94
2019-05-05T09:30:05.572Z,20.12
2019-05-05T09:31:05.884Z,20.12
2019-05-05T09:32:05.366Z,20.19
2019-05-05T09:33:05.629Z,20.06
2019-05-05T09:34:05.240Z,20.25
2019-05-05T09:35:05.529Z,20.31
2019-05-05T09:36:05.275Z,20.12
2019-05-05T09:37:06.139Z,20.25
2019-05-05T09:38:05.645Z,20.25
2019-05-05T09:39:05.111Z,20.25
2019-05-05T09:40:05.912Z,19.69
2019-05-05T09:41:05.555Z,20.06
2019-05-05T09:42:05.895Z,20.19
2019-05-05T09:43:05.931Z,20.19
2019-05-05T09:44:05.367Z,20.19
2019-05-05T09:45:05.196Z,20.38
2019-05-05T09:46:05.326Z,20.06
2019-05-05T09:47:05.949Z,19.88
2019-05-05T09:48:06.146Z,19.62
2019-05-05T09:49:05.503Z,19.62
2019-05-05T09:50:05.253Z,19.44
2019-05-05T09:51:05.407Z,19.56
2019-05-05T09:52:05.637Z,18.94
2019-05-05T09:53:05.968Z,19.50
2019-05-05T09:54:13.861Z,19.12
2019-05-05T09:55:05.569Z,18.94
2019-05-05T09:56:05.804Z,18.62
2019-05-05T09:57:05.345Z,18.56
2019-05-05T09:58:05.749Z,18.38
2019-05-05T09:59:05.868Z,18.56
2019-05-05T10:00:05.497Z,18.56
2019-05-05T10:01:05.282Z,18.69
2019-05-05T10:02:05.153Z,19.06
2019-05-05T10:03:05.730Z,19.25
2019-05-05T10:04:05.161Z,20.06
2019-05-05T10:05:05.893Z,20.44
2019-05-05T10:06:06.140Z,20.75
2019-05-05T10:07:05.590Z,20.25
2019-05-05T10:08:05.920Z,19.75
2019-05-05T10:09:06.015Z,19.81
2019-05-05T10:10:06.128Z,20.00
2019-05-05T10:11:05.508Z,20.12
2019-05-05T10:12:05.825Z,21.06
2019-05-05T10:13:05.867Z,21.25
2019-05-05T10:14:05.564Z,21.19
2019-05-05T10:15:07.381Z,21.56
2019-05-05T10:16:05.236Z,22.00
2019-05-05T10:17:05.602Z,22.38
2019-05-05T10:18:05.903Z,22.38
2019-05-05T10:19:06.002Z,22.56
2019-05-05T10:20:05.570Z,23.44
2019-05-05T10:21:05.891Z,22.50
2019-05-05T10:22:06.050Z,21.69
2019-05-05T10:23:05.815Z,21.25
2019-05-05T10:24:05.189Z,20.81
2019-05-05T10:25:05.403Z,21.44
2019-05-05T10:26:05.979Z,20.88
2019-05-05T10:27:06.050Z,21.00
2019-05-05T10:28:05.578Z,22.12
2019-05-05T10:29:05.883Z,21.44
2019-05-05T10:30:06.071Z,21.38
2019-05-05T10:31:05.235Z,21.19
2019-05-05T10:32:05.550Z,21.12
2019-05-05T10:33:05.152Z,21.06
2019-05-05T10:34:05.432Z,20.69
2019-05-05T10:35:06.234Z,20.50
2019-05-05T10:36:05.336Z,20.62
2019-05-05T10:37:05.824Z,20.50
2019-05-05T10:38:05.642Z,20.44
2019-05-05T10:39:05.810Z,20.31
2019-05-05T10:40:06.049Z,20.12
2019-05-05T10:41:05.323Z,20.06
2019-05-05T10:42:05.979Z,20.12
2019-05-05T10:43:05.818Z,19.88
2019-05-05T10:44:05.350Z,19.75
2019-05-05T10:45:05.535Z,19.88
2019-05-05T10:46:05.822Z,19.88
2019-05-05T10:47:05.528Z,19.81
2019-05-05T10:48:05.690Z,19.94
2019-05-05T10:49:05.842Z,19.94
2019-05-05T10:50:05.992Z,20.00
2019-05-05T10:51:05.431Z,20.12
2019-05-05T10:52:05.571Z,20.50
2019-05-05T10:53:05.754Z,20.56
2019-05-05T10:54:05.440Z,20.56
2019-05-05T10:55:05.911Z,20.50
2019-05-05T10:56:05.537Z,20.50
2019-05-05T10:57:05.596Z,20.50
2019-05-05T10:58:05.815Z,20.31
2019-05-05T10:59:05.179Z,20.12
2019-05-05T11:00:11.800Z,20.00
2019-05-05T11:01:05.833Z,19.88
2019-05-05T11:02:06.152Z,19.88
2019-05-05T11:03:05.532Z,19.88
2019-05-05T11:04:05.255Z,19.94
2019-05-05T11:05:05.287Z,20.12
2019-05-05T11:06:05.264Z,20.19
2019-05-05T11:07:05.746Z,20.56
2019-05-05T11:08:05.520Z,20.94
2019-05-05T11:09:06.005Z,21.38
2019-05-05T11:10:05.193Z,21.38
2019-05-05T11:11:05.519Z,21.69
2019-05-05T11:12:05.735Z,21.56
2019-05-05T11:13:05.555Z,21.69
2019-05-05T11:14:05.973Z,22.06
2019-05-05T11:15:05.185Z,22.31
2019-05-05T11:16:06.034Z,22.56
2019-05-05T11:17:05.499Z,23.06
2019-05-05T11:18:05.807Z,22.25
2019-05-05T11:19:05.126Z,22.38
2019-05-05T11:20:06.874Z,22.44
2019-05-05T11:21:06.158Z,22.06
2019-05-05T11:22:05.425Z,22.25
2019-05-05T11:23:05.837Z,22.50
2019-05-05T11:24:05.867Z,23.19
2019-05-05T11:25:05.972Z,22.88
2019-05-05T11:26:05.329Z,22.38
2019-05-05T11:27:05.116Z,21.81
2019-05-05T11:28:05.249Z,21.25
2019-05-05T11:29:05.579Z,21.69
2019-05-05T11:30:06.077Z,21.19
2019-05-05T11:31:05.676Z,21.00
2019-05-05T11:32:05.420Z,20.88
2019-05-05T11:33:05.900Z,20.88
2019-05-05T11:34:05.480Z,20.81
2019-05-05T11:35:05.454Z,20.69
2019-05-05T11:36:05.175Z,20.56
2019-05-05T11:37:05.778Z,20.44
2019-05-05T11:38:05.386Z,20.56
2019-05-05T11:39:05.783Z,20.69
2019-05-05T11:40:05.714Z,20.81
2019-05-05T11:41:05.986Z,20.81
2019-05-05T11:42:05.667Z,20.75
2019-05-05T11:43:05.652Z,21.25
2019-05-05T11:44:05.461Z,21.88
2019-05-05T11:45:05.740Z,21.38
2019-05-05T11:46:05.334Z,21.50
2019-05-05T11:47:05.725Z,21.75
2019-05-05T11:48:06.901Z,22.56
2019-05-05T11:49:05.360Z,22.00
2019-05-05T11:50:05.747Z,22.31
2019-05-05T11:51:05.969Z,22.38
2019-05-05T11:52:05.324Z,22.00
2019-05-05T11:53:06.244Z,21.56
2019-05-05T11:54:05.341Z,21.50
2019-05-05T11:55:11.334Z,21.88
2019-05-05T11:56:06.062Z,21.50
2019-05-05T11:57:05.089Z,22.06
2019-05-05T11:58:05.262Z,21.88
2019-05-05T11:59:05.203Z,21.62
2019-05-05T12:00:05.257Z,21.81
2019-05-05T12:01:05.737Z,22.00
2019-05-05T12:02:05.023Z,21.88
2019-05-05T12:03:05.021Z,21.81
2019-05-05T12:04:05.363Z,21.88
2019-05-05T12:05:05.266Z,21.69
2019-05-05T12:06:05.252Z,21.50
2019-05-05T12:07:05.331Z,21.31
2019-05-05T12:08:05.353Z,22.00
2019-05-05T12:09:05.907Z,21.94
2019-05-05T12:10:05.971Z,21.88
2019-05-05T12:11:05.432Z,21.56
2019-05-05T12:12:05.329Z,21.62
2019-05-05T12:13:05.565Z,21.44
2019-05-05T12:14:05.661Z,21.19
2019-05-05T12:15:05.845Z,20.94
2019-05-05T12:16:05.766Z,21.00
2019-05-05T12:17:05.347Z,21.12
2019-05-05T12:18:05.505Z,21.19
2019-05-05T12:19:05.517Z,21.12
2019-05-05T12:20:05.355Z,21.12
2019-05-05T12:21:05.505Z,21.12
2019-05-05T12:22:05.889Z,21.06
2019-05-05T12:23:05.212Z,21.12
2019-05-05T12:24:05.324Z,21.06
2019-05-05T12:25:05.365Z,21.06
2019-05-05T12:26:05.033Z,21.19
2019-05-05T12:27:05.439Z,21.19
2019-05-05T12:28:05.303Z,21.38
2019-05-05T12:29:05.570Z,21.12
2019-05-05T12:30:05.662Z,20.94
2019-05-05T12:31:05.746Z,20.81
2019-05-05T12:32:05.093Z,20.75
2019-05-05T12:33:05.114Z,20.88
2019-05-05T12:34:05.339Z,21.62
2019-05-05T12:35:05.337Z,22.19
2019-05-05T12:36:05.756Z,22.00
2019-05-05T12:37:05.767Z,21.94
2019-05-05T12:38:05.901Z,21.69
2019-05-05T12:39:05.492Z,21.56
2019-05-05T12:40:05.355Z,22.12
2019-05-05T12:41:05.332Z,21.94
2019-05-05T12:42:05.574Z,22.00
2019-05-05T12:43:05.657Z,22.25
2019-05-05T12:44:05.807Z,22.06
2019-05-05T12:45:05.899Z,21.69
2019-05-05T12:46:05.995Z,21.50
2019-05-05T12:47:05.170Z,21.31
2019-05-05T12:48:05.247Z,21.19
2019-05-05T12:49:05.810Z,21.44
2019-05-05T12:50:05.988Z,21.62
2019-05-05T12:51:05.879Z,21.88
2019-05-05T12:52:05.442Z,22.12